Time;durP1;ratioP1;P1;durP2;ratioP2;P2;SDS_P1;SDS_P2;PMS_P1;PMS_P2;Temp;Humidity;BMP_temperature;BMP_pressure;BME280_temperature;BME280_humidity;BME280_pressure;Samples;Min_cycle;Max_cycle;Signal;HPM_P1;HPM_P2
2022/04/12 00:00:56;;;;;;;15.63;8.38;;;21.70;49.10;;;;;;4949429;28;20085;-76
2022/04/12 00:03:22;;;;;;;14.90;8.32;;;21.70;49.10;;;;;;4929506;29;20035;-76
2022/04/12 00:05:47;;;;;;;15.27;8.57;;;21.60;49.20;;;;;;4934683;29;20032;-75
2022/04/12 00:08:13;;;;;;;13.77;7.95;;;21.70;49.20;;;;;;4935489;29;20114;-75
2022/04/12 00:10:39;;;;;;;17.40;8.13;;;21.70;49.10;;;;;;4934483;28;20046;-76
2022/04/12 00:13:05;;;;;;;18.48;8.35;;;21.70;49.20;;;;;;4935773;29;20416;-76
2022/04/12 00:15:31;;;;;;;15.05;7.65;;;21.70;49.30;;;;;;4935628;29;20438;-76
2022/04/12 00:20:43;;;;;;;13.40;7.72;;;21.70;49.30;;;;;;4916561;29;20032;-77
2022/04/12 00:23:11;;;;;;;14.10;8.18;;;21.70;49.20;;;;;;4916586;29;20046;-77
2022/04/12 00:25:36;;;;;;;13.52;7.40;;;21.70;49.30;;;;;;4915402;29;20028;-77
2022/04/12 00:28:02;;;;;;;13.07;7.70;;;21.70;49.40;;;;;;4916260;29;20079;-77
2022/04/12 00:30:29;;;;;;;12.43;7.85;;;21.70;49.20;;;;;;4916275;29;20036;-77
2022/04/12 00:32:55;;;;;;;13.23;7.78;;;21.70;49.90;;;;;;4916456;29;20044;-77
2022/04/12 00:35:24;;;;;;;12.95;7.25;;;21.70;49.40;;;;;;4919560;29;20568;-77
2022/04/12 00:37:50;;;;;;;14.45;8.32;;;21.70;49.30;;;;;;4915922;29;20028;-77
2022/04/12 00:40:18;;;;;;;12.85;7.75;;;21.70;49.20;;;;;;4916244;29;20043;-77
2022/04/12 00:42:44;;;;;;;13.82;7.50;;;21.70;49.10;;;;;;4916263;29;20036;-77
2022/04/12 00:45:10;;;;;;;11.70;6.93;;;21.70;49.20;;;;;;4916456;29;20028;-77
2022/04/12 00:47:36;;;;;;;12.00;6.85;;;21.60;48.90;;;;;;4952960;29;20024;-76
2022/04/12 00:50:03;;;;;;;11.23;7.18;;;21.60;49.40;;;;;;4954186;28;20035;-77
2022/04/12 00:52:31;;;;;;;12.70;7.47;;;21.60;49.30;;;;;;4941044;29;20110;-78
2022/04/12 00:54:57;;;;;;;13.13;7.18;;;21.70;49.40;;;;;;4932816;29;20031;-77
2022/04/12 00:57:23;;;;;;;11.32;6.53;;;21.60;49.60;;;;;;4934623;29;20159;-77
2022/04/12 00:59:51;;;;;;;14.30;6.90;;;21.60;49.30;;;;;;4934969;29;20031;-77
2022/04/12 01:02:17;;;;;;;10.27;6.45;;;21.60;49.40;;;;;;4934819;29;20111;-77
2022/04/12 01:04:42;;;;;;;11.95;7.03;;;21.60;49.70;;;;;;4934871;29;20502;-76
2022/04/12 01:07:09;;;;;;;11.80;6.78;;;21.70;49.50;;;;;;4934591;29;20046;-77
2022/04/12 01:09:35;;;;;;;12.23;7.15;;;21.60;49.90;;;;;;4933262;29;20028;-77
2022/04/12 01:12:09;;;;;;;11.27;6.85;;;21.70;49.90;;;;;;4933650;29;20411;-77
2022/04/12 01:14:35;;;;;;;14.00;6.75;;;21.60;49.80;;;;;;4934729;29;20055;-77
2022/04/12 01:17:05;;;;;;;10.43;6.68;;;21.70;49.90;;;;;;4934610;29;20059;-77
2022/04/12 01:19:31;;;;;;;11.15;6.32;;;21.60;50.10;;;;;;4934476;29;20031;-77
2022/04/12 01:22:03;;;;;;;11.43;6.75;;;21.70;49.60;;;;;;4933654;28;20094;-76
2022/04/12 01:24:29;;;;;;;11.80;6.90;;;21.70;50.10;;;;;;4933532;28;20032;-76
2022/04/12 01:26:56;;;;;;;11.88;6.95;;;21.70;50.10;;;;;;4931810;29;20592;-77
2022/04/12 01:29:23;;;;;;;11.93;6.50;;;21.70;49.50;;;;;;4932983;29;20034;-76
2022/04/12 01:31:49;;;;;;;14.90;6.55;;;21.70;49.80;;;;;;4933401;29;20056;-77
2022/04/12 01:34:14;;;;;;;11.77;6.82;;;21.70;50.20;;;;;;4935652;29;20024;-76
2022/04/12 01:36:40;;;;;;;11.60;5.97;;;21.60;49.90;;;;;;4943987;29;20103;-76
2022/04/12 01:39:06;;;;;;;10.43;6.13;;;21.60;49.70;;;;;;4933204;29;20035;-76
2022/04/12 01:41:32;;;;;;;11.48;6.57;;;21.60;50.30;;;;;;4946916;29;20484;-76
2022/04/12 01:43:57;;;;;;;11.45;6.05;;;21.60;49.90;;;;;;4934432;29;20036;-76
2022/04/12 01:46:26;;;;;;;9.77;6.28;;;21.70;50.10;;;;;;4943042;29;20031;-76
2022/04/12 01:48:52;;;;;;;10.00;6.10;;;21.60;50.60;;;;;;4953503;28;20060;-76
2022/04/12 01:51:18;;;;;;;10.93;6.30;;;21.60;50.50;;;;;;4953588;28;20048;-76
2022/04/12 01:53:43;;;;;;;12.05;6.90;;;21.60;50.70;;;;;;4952178;29;20106;-76
2022/04/12 01:56:09;;;;;;;10.27;6.20;;;21.60;50.50;;;;;;4953452;29;20060;-76
2022/04/12 01:58:36;;;;;;;10.88;6.13;;;21.60;50.60;;;;;;4953079;29;20054;-76
2022/04/12 02:01:02;;;;;;;10.20;5.78;;;21.60;50.30;;;;;;4926287;28;20393;-76
2022/04/12 02:03:28;;;;;;;13.38;6.07;;;21.60;49.30;;;;;;4914017;29;20151;-77
2022/04/12 02:05:57;;;;;;;10.68;5.88;;;21.60;49.80;;;;;;4917201;29;20042;-77
2022/04/12 02:08:23;;;;;;;13.18;5.93;;;21.70;50.30;;;;;;4918651;29;20056;-76
2022/04/12 02:10:48;;;;;;;9.13;5.32;;;21.60;49.80;;;;;;4918857;29;20505;-77
2022/04/12 02:13:16;;;;;;;9.95;5.75;;;21.60;49.90;;;;;;4918903;29;20035;-77
2022/04/12 02:15:43;;;;;;;10.13;5.60;;;21.60;50.20;;;;;;4917635;29;20572;-77
2022/04/12 02:18:09;;;;;;;10.02;5.85;;;21.60;50.40;;;;;;4922984;29;20036;-77
2022/04/12 02:20:34;;;;;;;9.52;5.20;;;21.60;50.60;;;;;;4925443;29;20024;-77
2022/04/12 02:23:00;;;;;;;12.35;6.00;;;21.60;50.70;;;;;;4933376;29;20519;-77
2022/04/12 02:25:26;;;;;;;10.35;5.93;;;21.60;50.70;;;;;;4933320;29;20036;-77
2022/04/12 02:27:52;;;;;;;11.35;5.68;;;21.70;50.60;;;;;;4917047;29;20030;-77
2022/04/12 02:30:17;;;;;;;9.80;5.47;;;21.60;50.80;;;;;;4918591;29;20070;-76
2022/04/12 02:32:43;;;;;;;10.23;5.07;;;21.60;50.00;;;;;;4918761;29;20492;-77
2022/04/12 02:35:09;;;;;;;8.80;5.30;;;21.60;50.30;;;;;;4919450;29;20059;-77
2022/04/12 02:37:35;;;;;;;10.60;5.40;;;21.60;49.70;;;;;;4917015;29;20038;-77
2022/04/12 02:40:02;;;;;;;9.15;5.43;;;21.60;50.10;;;;;;4918474;29;20028;-78
2022/04/12 02:42:28;;;;;;;10.40;4.93;;;21.60;49.50;;;;;;4918409;29;20032;-78
2022/04/12 02:44:53;;;;;;;8.85;5.10;;;21.60;49.50;;;;;;4917266;29;20362;-77
2022/04/12 02:47:22;;;;;;;7.97;4.78;;;21.60;49.60;;;;;;4967151;28;20023;-77
2022/04/12 02:49:49;;;;;;;9.55;5.75;;;21.60;50.00;;;;;;4939320;29;20047;-78
2022/04/12 02:52:15;;;;;;;12.52;5.45;;;21.60;49.70;;;;;;4939131;29;20031;-77
2022/04/12 02:54:41;;;;;;;7.25;4.90;;;21.60;49.80;;;;;;4952866;23;20429;-78
2022/04/12 02:57:06;;;;;;;8.90;4.72;;;21.60;49.80;;;;;;4941714;29;20026;-78
2022/04/12 02:59:32;;;;;;;8.45;5.13;;;21.60;50.00;;;;;;4936233;29;20038;-78
2022/04/12 03:01:57;;;;;;;9.18;5.38;;;21.60;50.00;;;;;;4936990;29;20499;-78
2022/04/12 03:04:23;;;;;;;9.35;5.10;;;21.60;50.00;;;;;;4936813;29;20095;-79
2022/04/12 03:06:49;;;;;;;9.98;4.82;;;21.60;50.00;;;;;;4936488;29;20446;-78
2022/04/12 03:09:14;;;;;;;11.00;5.80;;;21.60;49.90;;;;;;4923733;29;20056;-78
2022/04/12 03:11:40;;;;;;;11.27;5.10;;;21.60;50.00;;;;;;4917829;29;20079;-78
2022/04/12 03:14:08;;;;;;;9.57;5.30;;;21.60;50.10;;;;;;4916668;29;20107;-80
2022/04/12 03:16:33;;;;;;;10.05;4.95;;;21.60;50.10;;;;;;4916871;29;20445;-80
2022/04/12 03:18:59;;;;;;;10.23;5.22;;;21.60;51.60;;;;;;4917345;29;20028;-80
2022/04/12 03:21:25;;;;;;;13.02;5.00;;;21.60;51.60;;;;;;4917853;29;20040;-79
2022/04/12 03:23:50;;;;;;;10.18;5.38;;;21.60;51.30;;;;;;4916345;29;20028;-80
2022/04/12 03:26:16;;;;;;;11.38;5.13;;;21.60;51.10;;;;;;4918455;29;20028;-80
2022/04/12 03:28:42;;;;;;;13.77;4.80;;;21.60;50.50;;;;;;4933088;29;20046;-80
2022/04/12 03:31:07;;;;;;;8.95;4.45;;;21.60;50.40;;;;;;4936408;29;20031;-79
2022/04/12 03:33:33;;;;;;;8.93;4.72;;;21.60;50.40;;;;;;4935178;29;20023;-79
2022/04/12 03:35:59;;;;;;;14.80;4.82;;;21.60;50.60;;;;;;4936530;29;20086;-80
2022/04/12 03:38:25;;;;;;;8.52;4.78;;;21.60;50.70;;;;;;4936680;29;20028;-80
2022/04/12 03:40:51;;;;;;;10.45;4.88;;;21.60;50.80;;;;;;4936304;29;20074;-80
2022/04/12 03:43:17;;;;;;;9.07;4.50;;;21.60;50.70;;;;;;4906139;29;20430;-79
2022/04/12 03:45:43;;;;;;;9.15;4.68;;;21.60;50.70;;;;;;4917122;29;20035;-80
2022/04/12 03:48:09;;;;;;;10.07;4.88;;;21.60;50.60;;;;;;4917033;29;20489;-80
2022/04/12 03:50:34;;;;;;;8.05;4.80;;;21.60;50.80;;;;;;4917076;29;20032;-82
2022/04/12 03:53:01;;;;;;;7.47;4.60;;;21.60;50.60;;;;;;4917460;29;20536;-82
2022/04/12 03:55:31;;;;;;;10.20;4.40;;;21.60;50.70;;;;;;4917184;29;20036;-81
2022/04/12 03:57:58;;;;;;;9.88;4.38;;;21.60;51.00;;;;;;4916857;29;20498;-81
2022/04/12 04:00:24;;;;;;;7.43;4.53;;;21.60;51.00;;;;;;4917994;29;20111;-81
2022/04/12 04:02:50;;;;;;;9.38;4.53;;;21.60;50.70;;;;;;4931594;29;20112;-82
2022/04/12 04:05:16;;;;;;;9.18;4.65;;;21.60;51.00;;;;;;4916869;29;20401;-81
2022/04/12 04:07:41;;;;;;;7.65;4.53;;;21.60;50.60;;;;;;4915669;29;20405;-81
2022/04/12 04:10:07;;;;;;;13.45;4.38;;;21.60;51.00;;;;;;4915734;29;20489;-78
2022/04/12 04:12:33;;;;;;;7.20;4.25;;;21.60;50.80;;;;;;4915672;29;20070;-81
2022/04/12 04:14:59;;;;;;;8.95;4.45;;;21.60;50.70;;;;;;4916905;29;20107;-80
2022/04/12 04:17:24;;;;;;;7.70;4.35;;;21.60;50.80;;;;;;4917070;29;20036;-82
2022/04/12 04:19:50;;;;;;;8.40;4.55;;;21.60;50.70;;;;;;4916868;29;20044;-81
2022/04/12 04:22:16;;;;;;;8.40;4.10;;;21.60;51.10;;;;;;4915511;29;20412;-81
2022/04/12 04:24:41;;;;;;;14.80;4.70;;;21.60;50.80;;;;;;4900012;29;20086;-81
2022/04/12 04:27:08;;;;;;;8.15;4.47;;;21.60;50.90;;;;;;4916105;29;20032;-81
2022/04/12 04:29:35;;;;;;;9.73;4.40;;;21.60;50.70;;;;;;4923485;29;20028;-80
2022/04/12 04:32:01;;;;;;;8.73;4.00;;;21.60;50.70;;;;;;4935241;29;20400;-80
2022/04/12 04:34:27;;;;;;;8.15;4.68;;;21.60;50.90;;;;;;4922811;29;20048;-79
2022/04/12 04:36:53;;;;;;;7.85;3.95;;;21.60;51.30;;;;;;4915375;29;20582;-80
2022/04/12 04:39:18;;;;;;;8.73;4.18;;;21.70;51.30;;;;;;4916040;29;20036;-81
2022/04/12 04:41:44;;;;;;;9.40;4.20;;;21.60;51.00;;;;;;4916407;29;20489;-81
2022/04/12 04:44:10;;;;;;;8.95;4.50;;;21.60;50.80;;;;;;4916142;29;20031;-80
2022/04/12 04:46:36;;;;;;;9.13;4.38;;;21.60;50.60;;;;;;4916017;29;20028;-81
2022/04/12 04:49:01;;;;;;;9.88;4.43;;;21.60;50.90;;;;;;4899037;29;20046;-81
2022/04/12 04:51:27;;;;;;;9.23;4.45;;;21.60;50.50;;;;;;4916832;29;20028;-79
2022/04/12 04:53:58;;;;;;;14.40;4.97;;;21.60;51.00;;;;;;4899267;29;20409;-78
2022/04/12 04:56:25;;;;;;;7.25;4.43;;;21.60;51.20;;;;;;4915992;29;20043;-78
2022/04/12 04:58:52;;;;;;;9.27;4.00;;;21.60;50.80;;;;;;4915767;29;20563;-78
2022/04/12 05:01:20;;;;;;;10.40;4.55;;;21.60;50.80;;;;;;4914672;29;20103;-78
2022/04/12 05:03:46;;;;;;;7.38;4.22;;;21.60;51.30;;;;;;4915279;29;20032;-78
2022/04/12 05:06:12;;;;;;;8.75;4.53;;;21.60;51.40;;;;;;4915647;29;20032;-78
2022/04/12 05:08:37;;;;;;;7.60;4.13;;;21.60;51.30;;;;;;4916587;29;20031;-79
2022/04/12 05:11:03;;;;;;;9.50;4.38;;;21.60;51.40;;;;;;4915667;29;20489;-78
2022/04/12 05:13:29;;;;;;;8.38;4.47;;;21.60;51.00;;;;;;4915250;29;20032;-78
2022/04/12 05:15:54;;;;;;;6.50;3.90;;;21.60;50.90;;;;;;4916589;29;20024;-78
2022/04/12 05:18:20;;;;;;;10.63;4.50;;;21.60;51.00;;;;;;4932056;29;20039;-78
2022/04/12 05:20:45;;;;;;;7.40;4.47;;;21.60;51.30;;;;;;4933357;29;20035;-78
2022/04/12 05:23:11;;;;;;;7.15;4.00;;;21.60;51.20;;;;;;4933499;29;20031;-79
2022/04/12 05:25:37;;;;;;;8.95;4.47;;;21.60;50.60;;;;;;4927778;29;20030;-79
2022/04/12 05:28:03;;;;;;;8.85;4.18;;;21.60;50.50;;;;;;4921565;29;20488;-80
2022/04/12 05:30:29;;;;;;;9.80;3.95;;;21.60;51.10;;;;;;4932935;29;20036;-78
2022/04/12 05:32:54;;;;;;;9.75;4.20;;;21.60;51.50;;;;;;4934549;29;20043;-79
2022/04/12 05:35:20;;;;;;;7.97;4.22;;;21.60;51.50;;;;;;4934496;29;20500;-79
2022/04/12 05:37:56;;;;;;;7.88;4.32;;;21.60;51.50;;;;;;4934116;29;20079;-79
2022/04/12 05:40:22;;;;;;;13.15;4.55;;;21.60;51.80;;;;;;4935283;29;20039;-79
2022/04/12 05:42:49;;;;;;;10.55;4.55;;;21.60;52.40;;;;;;4937133;29;20046;-79
2022/04/12 05:45:15;;;;;;;10.80;4.72;;;21.60;52.00;;;;;;4938375;29;20118;-79
2022/04/12 05:47:46;;;;;;;21.05;6.07;;;21.60;52.00;;;;;;4938241;29;20055;-78
2022/04/12 05:50:14;;;;;;;20.05;5.75;;;21.60;51.60;;;;;;4938222;29;20047;-79
2022/04/12 05:52:40;;;;;;;10.38;4.95;;;21.60;52.10;;;;;;4937065;29;20028;-78
2022/04/12 05:55:08;;;;;;;12.23;5.03;;;21.60;52.60;;;;;;4938077;29;20031;-78
2022/04/12 05:57:38;;;;;;;15.23;4.72;;;21.60;51.70;;;;;;4936065;29;20488;-78
2022/04/12 06:00:06;;;;;;;11.02;4.88;;;21.60;51.90;;;;;;4945726;29;20035;-79
2022/04/12 06:02:33;;;;;;;11.35;5.05;;;21.60;52.40;;;;;;4921510;29;20043;-76
2022/04/12 06:04:58;;;;;;;9.68;4.90;;;21.60;51.80;;;;;;4921582;29;20110;-78
2022/04/12 06:07:30;;;;;;;12.30;4.78;;;21.60;52.60;;;;;;4936502;29;20130;-77
2022/04/12 06:09:55;;;;;;;11.25;4.63;;;21.60;51.80;;;;;;4936407;29;20560;-78
2022/04/12 06:12:21;;;;;;;10.02;4.50;;;21.60;50.70;;;;;;4936334;29;20127;-80
2022/04/12 06:14:47;;;;;;;10.65;3.88;;;21.60;49.50;;;;;;4937713;29;20484;-76
2022/04/12 06:17:12;;;;;;;12.98;4.93;;;21.60;48.20;;;;;;4936466;29;20034;-77
2022/04/12 06:19:38;;;;;;;11.82;4.30;;;21.60;50.00;;;;;;4937289;29;20070;-80
2022/04/12 06:22:04;;;;;;;12.50;4.25;;;21.60;48.30;;;;;;4936721;29;20028;-80
2022/04/12 06:24:30;;;;;;;13.75;4.53;;;21.60;49.20;;;;;;4936335;29;20024;-80
2022/04/12 06:26:55;;;;;;;16.00;4.70;;;21.60;49.50;;;;;;4920695;29;20036;-81
2022/04/12 06:29:21;;;;;;;14.57;4.70;;;21.60;50.00;;;;;;4937352;29;20042;-79
2022/04/12 06:31:46;;;;;;;16.30;5.07;;;21.60;50.10;;;;;;4937515;29;20039;-80
2022/04/12 06:34:12;;;;;;;13.95;4.25;;;21.60;50.00;;;;;;4936479;29;20034;-80
2022/04/12 06:36:38;;;;;;;12.15;4.65;;;21.60;49.90;;;;;;4937500;29;20036;-80
2022/04/12 06:39:03;;;;;;;12.60;4.47;;;21.70;49.90;;;;;;4937062;29;20052;-79
2022/04/12 06:41:29;;;;;;;21.52;5.03;;;21.70;50.00;;;;;;4938073;29;20028;-81
2022/04/12 06:43:55;;;;;;;14.55;4.18;;;21.70;50.00;;;;;;4920410;29;20459;-81
2022/04/12 06:46:20;;;;;;;11.45;4.38;;;21.70;50.40;;;;;;4937381;29;20031;-80
2022/04/12 06:48:46;;;;;;;10.07;4.43;;;21.70;50.60;;;;;;4937106;29;20027;-80
2022/04/12 06:51:12;;;;;;;10.98;3.97;;;21.70;50.50;;;;;;4935217;29;20091;-79
2022/04/12 06:53:37;;;;;;;9.88;4.57;;;21.70;50.60;;;;;;4936464;29;20060;-80
2022/04/12 06:56:03;;;;;;;14.38;4.00;;;21.70;50.60;;;;;;4935498;29;20059;-80
2022/04/12 06:58:29;;;;;;;10.73;3.95;;;21.70;50.70;;;;;;4936832;29;20038;-79
2022/04/12 07:00:55;;;;;;;13.00;4.78;;;21.70;50.80;;;;;;4937223;29;20428;-79
2022/04/12 07:03:21;;;;;;;10.45;4.65;;;21.70;50.90;;;;;;4937069;29;20054;-79
2022/04/12 07:05:49;;;;;;;9.90;4.07;;;21.70;51.20;;;;;;4936927;29;20036;-78
2022/04/12 07:08:15;;;;;;;16.60;4.25;;;21.70;51.20;;;;;;4936708;29;20083;-79
2022/04/12 07:10:42;;;;;;;11.32;3.90;;;21.80;51.40;;;;;;4936908;29;20510;-79
2022/04/12 07:13:08;;;;;;;15.52;4.70;;;21.80;51.60;;;;;;4919800;29;20479;-78
2022/04/12 07:15:34;;;;;;;9.45;4.22;;;21.80;51.60;;;;;;4936631;29;20477;-79
2022/04/12 07:18:00;;;;;;;7.70;3.78;;;21.80;51.70;;;;;;4935443;29;20031;-78
2022/04/12 07:20:26;;;;;;;9.02;4.13;;;21.80;51.80;;;;;;4935319;29;20401;-79
2022/04/12 07:22:51;;;;;;;9.13;3.88;;;21.80;51.90;;;;;;4933611;29;20082;-77
2022/04/12 07:25:18;;;;;;;10.23;3.95;;;21.80;52.50;;;;;;4935019;29;20111;-78
2022/04/12 07:27:43;;;;;;;10.50;3.95;;;21.80;52.10;;;;;;4935717;29;20082;-78
2022/04/12 07:30:10;;;;;;;10.82;4.10;;;21.80;52.10;;;;;;4935068;29;20059;-78
2022/04/12 07:32:35;;;;;;;9.27;4.03;;;21.80;52.20;;;;;;4936384;29;20020;-78
2022/04/12 07:35:01;;;;;;;11.68;3.90;;;21.90;52.20;;;;;;4935963;29;20507;-78
2022/04/12 07:37:27;;;;;;;10.25;4.18;;;21.90;52.30;;;;;;4935227;29;20023;-78
2022/04/12 07:39:56;;;;;;;11.18;4.07;;;21.90;52.30;;;;;;4935976;29;20027;-78
2022/04/12 07:42:23;;;;;;;10.57;3.90;;;21.90;52.90;;;;;;4935912;29;20380;-78
2022/04/12 07:44:49;;;;;;;10.30;4.00;;;21.90;52.40;;;;;;4916273;29;20043;-78
2022/04/12 07:47:14;;;;;;;11.43;3.88;;;21.90;52.30;;;;;;4935658;29;20020;-78
2022/04/12 07:49:41;;;;;;;9.02;3.60;;;21.90;52.40;;;;;;4912268;29;20032;-79
2022/04/12 07:52:07;;;;;;;9.55;3.92;;;21.90;52.40;;;;;;4936019;29;20034;-78
2022/04/12 07:54:33;;;;;;;12.27;3.95;;;22.00;52.40;;;;;;4934446;29;20043;-78
2022/04/12 07:56:58;;;;;;;15.68;4.28;;;22.00;52.70;;;;;;4918703;29;20032;-78
2022/04/12 07:59:24;;;;;;;10.80;4.15;;;22.00;52.40;;;;;;4935672;29;20035;-78
2022/04/12 08:01:50;;;;;;;8.95;3.65;;;22.00;52.70;;;;;;4936116;29;20034;-78
2022/04/12 08:04:15;;;;;;;7.90;3.75;;;22.00;52.80;;;;;;4935457;29;20385;-78
2022/04/12 08:06:42;;;;;;;12.38;4.32;;;22.10;53.40;;;;;;4934494;29;20043;-78
2022/04/12 08:09:09;;;;;;;13.95;4.70;;;22.10;55.10;;;;;;4935551;29;20086;-78
2022/04/12 08:11:35;;;;;;;12.55;4.63;;;22.10;55.60;;;;;;4935683;29;20059;-78
2022/04/12 08:14:02;;;;;;;9.32;4.43;;;22.20;57.10;;;;;;4935664;29;20019;-78
2022/04/12 08:16:28;;;;;;;11.65;5.00;;;22.20;55.60;;;;;;4935390;29;20031;-78
2022/04/12 08:18:55;;;;;;;9.55;4.40;;;22.20;56.70;;;;;;4935508;29;20082;-78
2022/04/12 08:21:40;;;;;;;9.35;3.92;;;22.20;56.20;;;;;;4934429;29;20032;-78
2022/04/12 08:24:07;;;;;;;18.95;4.05;;;22.20;54.70;;;;;;4934370;29;20079;-79
2022/04/12 08:26:33;;;;;;;26.38;5.97;;;22.20;54.10;;;;;;4935555;29;20059;-79
2022/04/12 08:28:58;;;;;;;15.02;4.75;;;22.20;54.70;;;;;;4935128;29;20512;-79
2022/04/12 08:31:24;;;;;;;29.05;5.05;;;22.20;55.10;;;;;;4935318;29;20075;-79
2022/04/12 08:33:50;;;;;;;21.00;5.07;;;22.20;54.70;;;;;;4934149;29;20456;-69
2022/04/12 08:36:16;;;;;;;26.52;4.78;;;22.20;55.10;;;;;;4935164;29;20074;-77
2022/04/12 08:38:46;;;;;;;18.67;4.15;;;22.10;55.00;;;;;;4934813;29;20602;-77
2022/04/12 08:41:13;;;;;;;;;;;22.00;52.90;;;;;;4933804;29;20114;-77
2022/04/12 08:43:41;;;;;;;15.75;4.80;;;22.00;53.30;;;;;;4933578;29;19933;-77
2022/04/12 08:46:07;;;;;;;11.63;4.40;;;22.00;51.80;;;;;;4933469;29;20404;-77
2022/04/12 08:48:33;;;;;;;9.38;4.45;;;22.00;50.30;;;;;;4934436;29;20024;-77
2022/04/12 08:51:01;;;;;;;11.35;4.80;;;22.00;49.20;;;;;;4912071;29;20035;-77
2022/04/12 08:53:28;;;;;;;13.77;5.28;;;21.90;48.60;;;;;;4934815;29;20023;-77
2022/04/12 08:55:55;;;;;;;13.63;4.82;;;21.90;48.50;;;;;;4953525;23;20075;-82
2022/04/12 08:58:21;;;;;;;14.20;4.75;;;21.90;48.50;;;;;;4940595;29;20019;-82
2022/04/12 09:00:47;;;;;;;12.68;4.65;;;21.90;48.70;;;;;;4927411;29;20023;-80
2022/04/12 09:03:14;;;;;;;14.65;4.88;;;21.90;48.60;;;;;;4922698;29;20063;-79
2022/04/12 09:05:40;;;;;;;12.07;4.25;;;22.00;49.10;;;;;;4912738;29;20079;-79
2022/04/12 09:08:26;;;;;;;10.52;4.25;;;22.00;48.80;;;;;;4889562;29;20032;-79
2022/04/12 09:10:57;;;;;;;13.90;4.38;;;21.90;49.00;;;;;;4909734;29;20032;-79
2022/04/12 09:13:23;;;;;;;11.07;4.57;;;21.90;49.00;;;;;;4901708;29;20029;-79
2022/04/12 09:15:49;;;;;;;11.70;4.78;;;22.00;49.20;;;;;;4903434;29;20035;-79
2022/04/12 09:18:37;;;;;;;13.65;4.38;;;22.00;49.30;;;;;;4905222;29;20111;-79
2022/04/12 09:21:16;;;;;;;10.70;4.07;;;22.00;49.60;;;;;;4905926;29;20179;-79
2022/04/12 09:23:46;;;;;;;9.85;3.78;;;21.90;49.60;;;;;;4905861;29;20040;-79
2022/04/12 09:26:22;;;;;;;12.18;4.15;;;21.90;49.60;;;;;;4905136;29;20143;-79
2022/04/12 09:28:50;;;;;;;9.98;4.07;;;22.00;49.90;;;;;;4904200;29;20044;-79
2022/04/12 09:31:17;;;;;;;9.18;4.07;;;22.00;49.90;;;;;;4910812;29;20409;-79
2022/04/12 09:33:44;;;;;;;10.13;3.72;;;22.00;50.00;;;;;;4904717;29;20048;-79
2022/04/12 09:36:10;;;;;;;8.73;3.72;;;22.00;50.10;;;;;;4903438;29;20733;-79
2022/04/12 09:38:38;;;;;;;11.40;4.15;;;22.00;50.20;;;;;;4903896;29;20024;-79
2022/04/12 09:41:23;;;;;;;10.27;3.85;;;22.00;50.40;;;;;;4903924;29;20268;-79
2022/04/12 09:44:07;;;;;;;11.75;3.72;;;22.00;50.30;;;;;;4904336;29;20029;-79
2022/04/12 09:46:35;;;;;;;8.63;3.67;;;22.10;50.50;;;;;;4914182;29;20087;-78
2022/04/12 09:49:01;;;;;;;13.27;3.85;;;22.00;50.50;;;;;;4913957;29;20062;-78
2022/04/12 09:51:26;;;;;;;15.52;4.18;;;22.10;50.50;;;;;;4915396;29;20060;-80
2022/04/12 09:53:52;;;;;;;12.85;4.20;;;22.00;50.60;;;;;;4914163;29;20063;-72
2022/04/12 09:56:23;;;;;;;11.77;4.07;;;22.00;50.70;;;;;;4914150;29;20047;-78
2022/04/12 09:58:57;;;;;;;10.07;4.25;;;22.00;50.40;;;;;;4913759;29;20041;-78
2022/04/12 10:01:24;;;;;;;9.50;4.22;;;22.00;49.60;;;;;;4915504;29;20116;-78
2022/04/12 10:03:55;;;;;;;14.73;4.22;;;22.00;49.80;;;;;;4914154;29;20052;-77
2022/04/12 10:06:25;;;;;;;18.17;4.47;;;22.00;51.20;;;;;;4914241;29;20032;-78
2022/04/12 10:08:59;;;;;;;13.02;4.20;;;22.10;50.50;;;;;;4915069;29;20087;-78
2022/04/12 10:11:26;;;;;;;14.13;4.45;;;22.10;52.30;;;;;;4913880;29;20400;-77
2022/04/12 10:13:52;;;;;;;20.15;5.13;;;22.00;53.20;;;;;;4915288;29;20077;-78
2022/04/12 10:16:20;;;;;;;20.17;5.10;;;22.10;54.20;;;;;;4913919;29;20039;-79
2022/04/12 10:18:46;;;;;;;29.92;6.65;;;22.10;56.00;;;;;;4914892;29;20513;-80
2022/04/12 10:21:13;;;;;;;26.92;6.35;;;22.10;57.80;;;;;;4914749;29;20040;-79
2022/04/12 10:23:42;;;;;;;26.67;7.45;;;22.10;57.20;;;;;;4915255;29;20036;-79
2022/04/12 10:26:10;;;;;;;28.10;7.32;;;22.20;57.40;;;;;;4899060;29;20068;-79
2022/04/12 10:28:37;;;;;;;28.27;8.30;;;22.20;57.80;;;;;;4901472;29;20039;-79
2022/04/12 10:31:18;;;;;;;32.55;6.78;;;22.30;60.60;;;;;;4918602;29;20621;-79
2022/04/12 10:33:51;;;;;;;24.92;7.45;;;22.30;62.60;;;;;;4917676;29;20032;-79
2022/04/12 10:36:17;;;;;;;27.13;6.45;;;22.30;61.10;;;;;;4916882;29;20028;-77
2022/04/12 10:38:43;;;;;;;30.30;7.38;;;22.30;62.70;;;;;;4901448;29;20087;-72
2022/04/12 10:41:24;;;;;;;31.50;8.68;;;22.30;62.30;;;;;;4901642;29;20082;-78
2022/04/12 10:43:55;;;;;;;36.15;9.27;;;22.30;61.90;;;;;;4918621;29;20130;-78
2022/04/12 10:46:21;;;;;;;23.95;7.95;;;22.30;63.50;;;;;;4901649;29;20042;-70
2022/04/12 10:48:55;;;;;;;28.20;7.47;;;22.40;64.10;;;;;;4902285;29;20025;-77
2022/04/12 10:51:41;;;;;;;26.05;7.10;;;22.30;60.00;;;;;;4899333;29;20024;-76
2022/04/12 10:54:29;;;;;;;26.52;7.07;;;22.30;58.40;;;;;;4907772;29;20024;-78
2022/04/12 10:57:17;;;;;;;23.48;6.97;;;22.20;58.50;;;;;;4898389;29;20446;-80
2022/04/12 10:59:51;;;;;;;28.90;7.93;;;22.20;56.90;;;;;;4896670;29;20686;-79
2022/04/12 11:02:17;;;;;;;28.48;7.97;;;22.20;56.20;;;;;;4896696;29;20398;-80
2022/04/12 11:04:43;;;;;;;23.27;7.60;;;22.20;55.80;;;;;;4898257;29;20025;-80
2022/04/12 11:07:09;;;;;;;26.45;8.27;;;22.20;55.50;;;;;;4878730;29;20045;-77
2022/04/12 11:09:35;;;;;;;23.65;8.32;;;22.20;55.40;;;;;;4894070;29;20058;-77
2022/04/12 11:12:03;;;;;;;26.80;8.52;;;22.20;55.50;;;;;;4897740;29;20127;-76
2022/04/12 11:14:36;;;;;;;28.73;9.02;;;22.20;55.60;;;;;;4897451;29;20497;-77
2022/04/12 11:17:12;;;;;;;24.98;8.68;;;22.20;55.40;;;;;;4896529;29;20043;-75
2022/04/12 11:19:49;;;;;;;29.67;9.13;;;22.20;55.30;;;;;;4914269;29;20036;-77
2022/04/12 11:22:17;;;;;;;30.63;8.80;;;22.20;55.20;;;;;;4906287;29;20029;-77
2022/04/12 11:25:03;;;;;;;25.05;8.48;;;22.20;55.10;;;;;;4897727;29;20043;-77
2022/04/12 11:27:29;;;;;;;24.80;8.55;;;22.20;55.20;;;;;;4898878;29;20036;-77
2022/04/12 11:29:57;;;;;;;25.05;7.72;;;22.20;55.10;;;;;;4897114;29;20041;-78
2022/04/12 11:32:25;;;;;;;22.85;8.48;;;22.20;55.30;;;;;;4910424;29;20039;-75
2022/04/12 11:34:51;;;;;;;25.27;8.10;;;22.20;55.20;;;;;;4897402;29;20040;-78
2022/04/12 11:37:17;;;;;;;25.42;8.15;;;22.20;54.80;;;;;;4911863;29;20088;-79
2022/04/12 11:39:44;;;;;;;28.23;9.63;;;22.20;55.10;;;;;;4913331;29;20516;-77
2022/04/12 11:42:12;;;;;;;29.00;9.60;;;22.20;55.10;;;;;;4897304;29;20345;-78
2022/04/12 11:44:38;;;;;;;28.08;9.82;;;22.20;55.10;;;;;;4911145;29;20041;-75
2022/04/12 11:47:09;;;;;;;38.08;12.68;;;22.20;55.60;;;;;;4913854;29;20493;-75
2022/04/12 11:49:41;;;;;;;30.33;12.25;;;22.30;57.10;;;;;;4913803;29;20040;-71
2022/04/12 11:52:09;;;;;;;30.52;11.15;;;22.30;57.10;;;;;;4913505;29;20123;-67
2022/04/12 11:54:37;;;;;;;26.83;9.35;;;22.20;57.20;;;;;;4912559;29;20075;-67
2022/04/12 11:57:13;;;;;;;19.27;6.72;;;22.10;55.60;;;;;;4894798;29;20028;-67
2022/04/12 11:59:51;;;;;;;13.85;5.65;;;22.00;52.30;;;;;;4919946;29;20506;-70
2022/04/12 12:02:22;;;;;;;19.67;6.38;;;21.90;50.30;;;;;;4901031;29;20092;-71
2022/04/12 12:04:59;;;;;;;13.05;5.82;;;21.80;46.80;;;;;;4897229;29;20564;-70
2022/04/12 12:07:26;;;;;;;10.85;5.13;;;21.80;45.90;;;;;;4894012;29;20040;-71
2022/04/12 12:09:59;;;;;;;13.13;5.13;;;21.70;47.00;;;;;;4895615;29;20093;-80
2022/04/12 12:12:34;;;;;;;12.07;4.88;;;21.70;46.50;;;;;;4905965;29;20083;-80
2022/04/12 12:15:12;;;;;;;13.73;4.57;;;21.70;46.50;;;;;;4879981;29;20028;-83
2022/04/12 12:17:39;;;;;;;12.30;5.20;;;21.70;40.00;;;;;;4896500;29;20408;-83
2022/04/12 12:20:07;;;;;;;14.88;5.35;;;21.80;43.20;;;;;;4896240;29;20480;-79
2022/04/12 12:22:37;;;;;;;12.77;5.35;;;21.80;42.80;;;;;;4912231;29;20040;-80
2022/04/12 12:25:04;;;;;;;11.20;4.93;;;21.90;42.70;;;;;;4913947;29;20021;-82
2022/04/12 12:27:38;;;;;;;9.15;4.13;;;21.90;43.30;;;;;;4897896;29;20021;-80
2022/04/12 12:30:07;;;;;;;10.88;4.13;;;21.90;42.50;;;;;;4895140;29;20032;-80
2022/04/12 12:32:34;;;;;;;13.48;4.25;;;22.00;44.20;;;;;;4879832;29;20052;-81
2022/04/12 12:35:02;;;;;;;10.93;4.00;;;22.00;44.10;;;;;;4893321;29;20039;-80
2022/04/12 12:37:28;;;;;;;19.08;4.78;;;22.10;45.50;;;;;;4898023;29;20409;-71
2022/04/12 12:39:54;;;;;;;14.43;5.35;;;22.10;46.60;;;;;;4879490;29;20032;-78
2022/04/12 12:42:22;;;;;;;19.23;6.30;;;22.00;45.00;;;;;;4896226;29;20047;-79
2022/04/12 12:44:48;;;;;;;15.30;8.80;;;22.00;46.80;;;;;;4894761;29;20032;-77